createdAt,value
2024-01-07T00:01:29.660Z,17.92
2024-01-07T00:03:57.202Z,18.33
2024-01-07T00:06:23.957Z,18.15
2024-01-07T00:08:50.545Z,19.23
2024-01-07T00:11:17.170Z,25.70
2024-01-07T00:13:43.877Z,21.25
2024-01-07T00:16:14.818Z,21.23
2024-01-07T00:19:08.252Z,18.98
2024-01-07T00:21:35.909Z,19.90
2024-01-07T00:24:02.679Z,19.00
2024-01-07T00:26:29.263Z,19.67
2024-01-07T00:28:55.970Z,19.90
2024-01-07T00:31:22.765Z,21.40
2024-01-07T00:33:49.618Z,21.48
2024-01-07T00:36:16.326Z,20.35
2024-01-07T00:38:43.107Z,20.23
2024-01-07T00:41:09.774Z,19.83
2024-01-07T00:43:36.416Z,18.30
2024-01-07T00:46:03.277Z,21.17
2024-01-07T00:48:29.967Z,24.55
2024-01-07T00:50:56.725Z,19.02
2024-01-07T00:53:23.438Z,17.90
2024-01-07T00:55:50.046Z,21.92
2024-01-07T00:58:16.968Z,20.10
2024-01-07T01:00:43.871Z,21.33
2024-01-07T01:03:10.554Z,16.60
2024-01-07T01:05:37.381Z,16.05
2024-01-07T01:08:04.319Z,22.83
2024-01-07T01:10:30.945Z,20.33
2024-01-07T01:12:57.532Z,17.00
2024-01-07T01:15:24.220Z,18.65
2024-01-07T01:17:51.007Z,15.93
2024-01-07T01:20:17.745Z,19.50
2024-01-07T01:22:44.307Z,17.42
2024-01-07T01:25:12.117Z,15.40
2024-01-07T01:27:38.852Z,17.42
2024-01-07T01:30:06.237Z,19.20
2024-01-07T01:32:33.006Z,18.00
2024-01-07T01:34:59.682Z,20.90
2024-01-07T01:37:26.391Z,19.98
2024-01-07T01:39:53.118Z,16.70
2024-01-07T01:42:19.826Z,15.70
2024-01-07T01:44:47.704Z,23.65
2024-01-07T01:47:14.644Z,16.92
2024-01-07T01:49:41.770Z,21.30
2024-01-07T01:52:10.166Z,18.75
2024-01-07T01:54:39.957Z,20.65
2024-01-07T01:57:06.990Z,15.23
2024-01-07T01:59:34.988Z,18.67
2024-01-07T02:02:02.651Z,15.90
2024-01-07T02:04:30.885Z,21.50
2024-01-07T02:06:57.671Z,19.70
2024-01-07T02:09:24.384Z,19.60
2024-01-07T02:12:04.765Z,21.60
2024-01-07T02:14:31.467Z,18.85
2024-01-07T02:16:58.332Z,21.58
2024-01-07T02:19:25.005Z,27.27
2024-01-07T02:21:52.295Z,21.42
2024-01-07T02:24:19.605Z,18.25
2024-01-07T02:26:46.430Z,16.10
2024-01-07T02:29:13.070Z,19.55
2024-01-07T02:31:39.801Z,21.27
2024-01-07T02:34:06.746Z,15.90
2024-01-07T02:36:33.602Z,15.45
2024-01-07T02:39:00.258Z,15.50
2024-01-07T02:41:27.801Z,16.15
2024-01-07T02:43:54.803Z,22.92
2024-01-07T02:46:21.995Z,20.02
2024-01-07T02:48:48.707Z,13.63
2024-01-07T02:51:15.440Z,19.08
2024-01-07T02:53:42.068Z,17.00
2024-01-07T02:56:09.980Z,17.95
2024-01-07T02:58:36.898Z,15.20
2024-01-07T03:01:09.043Z,15.70
2024-01-07T03:03:35.783Z,18.52
2024-01-07T03:06:03.094Z,11.35
2024-01-07T03:08:29.813Z,16.48
2024-01-07T03:10:56.441Z,17.73
2024-01-07T03:13:23.076Z,16.27
2024-01-07T03:15:49.682Z,14.32
2024-01-07T03:18:16.335Z,18.00
2024-01-07T03:20:43.102Z,14.75
2024-01-07T03:23:09.654Z,15.35
2024-01-07T03:25:36.249Z,17.58
2024-01-07T03:28:02.899Z,17.05
2024-01-07T03:30:29.546Z,15.18
2024-01-07T03:32:56.461Z,14.32
2024-01-07T03:35:25.218Z,14.70
2024-01-07T03:37:51.912Z,14.07
2024-01-07T03:40:18.799Z,15.52
2024-01-07T03:42:45.506Z,13.15
2024-01-07T03:45:12.105Z,15.38
2024-01-07T03:47:38.819Z,17.67
2024-01-07T03:50:05.849Z,14.15
2024-01-07T03:52:34.046Z,16.88
2024-01-07T03:55:00.873Z,14.75
2024-01-07T03:57:27.648Z,19.05
2024-01-07T03:59:54.306Z,15.95
2024-01-07T04:02:20.966Z,14.55
2024-01-07T04:04:47.605Z,13.93
2024-01-07T04:07:14.293Z,14.98
2024-01-07T04:09:40.944Z,9.73
2024-01-07T04:12:07.559Z,15.18
2024-01-07T04:14:34.978Z,13.77
2024-01-07T04:17:01.840Z,17.48
2024-01-07T04:19:28.516Z,14.48
2024-01-07T04:21:55.269Z,11.45
2024-01-07T04:24:21.909Z,18.83
2024-01-07T04:26:48.627Z,15.15
2024-01-07T04:29:15.195Z,17.75
2024-01-07T04:31:41.955Z,13.57
2024-01-07T04:34:08.694Z,17.40
2024-01-07T04:36:35.414Z,17.73
2024-01-07T04:39:02.136Z,13.27
2024-01-07T04:41:28.783Z,15.13
2024-01-07T04:43:55.381Z,18.70
2024-01-07T04:46:21.998Z,15.18
2024-01-07T04:48:48.684Z,14.07
2024-01-07T04:51:15.654Z,13.77
2024-01-07T04:53:42.255Z,14.57
2024-01-07T04:56:08.897Z,12.48
2024-01-07T04:58:35.541Z,15.25
2024-01-07T05:01:02.352Z,15.88
2024-01-07T05:03:29.293Z,13.90
2024-01-07T05:05:55.994Z,13.55
2024-01-07T05:08:25.957Z,16.58
2024-01-07T05:10:53.550Z,16.30
2024-01-07T05:13:20.241Z,13.30
2024-01-07T05:15:47.940Z,11.95
2024-01-07T05:18:16.812Z,15.82
2024-01-07T05:20:45.355Z,14.73
2024-01-07T05:23:11.968Z,13.45
2024-01-07T05:25:38.766Z,19.38
2024-01-07T05:28:05.624Z,13.05
2024-01-07T05:30:32.294Z,12.55
2024-01-07T05:32:59.021Z,14.25
2024-01-07T05:35:25.680Z,10.02
2024-01-07T05:37:52.307Z,10.48
2024-01-07T05:40:19.034Z,12.38
2024-01-07T05:42:45.677Z,10.32
2024-01-07T05:45:12.326Z,11.65
2024-01-07T05:47:38.929Z,13.18
2024-01-07T05:50:05.913Z,10.43
2024-01-07T05:52:32.544Z,10.90
2024-01-07T05:54:59.646Z,10.75
2024-01-07T05:57:26.387Z,12.48
2024-01-07T05:59:54.833Z,10.95
2024-01-07T06:02:24.017Z,8.35
2024-01-07T06:04:50.842Z,12.43
2024-01-07T06:07:17.768Z,10.25
2024-01-07T06:09:44.503Z,10.55
2024-01-07T06:12:11.159Z,11.80
2024-01-07T06:14:37.701Z,12.35
2024-01-07T06:17:04.567Z,10.52
2024-01-07T06:19:31.407Z,8.48
2024-01-07T06:21:58.198Z,9.85
2024-01-07T06:24:25.039Z,12.50
2024-01-07T06:26:51.687Z,7.15
2024-01-07T06:29:18.296Z,7.82
2024-01-07T06:31:46.506Z,8.10
2024-01-07T06:34:16.534Z,8.15
2024-01-07T06:36:43.774Z,5.13
2024-01-07T06:39:10.886Z,8.02
2024-01-07T06:41:37.449Z,7.63
2024-01-07T06:44:04.493Z,8.77
2024-01-07T06:46:31.398Z,8.10
2024-01-07T06:48:58.234Z,10.13
2024-01-07T06:51:24.870Z,8.63
2024-01-07T06:53:51.614Z,6.35
2024-01-07T06:56:18.294Z,10.73
2024-01-07T06:58:45.498Z,7.90
2024-01-07T07:01:12.987Z,8.15
2024-01-07T07:06:08.126Z,7.25
2024-01-07T07:08:34.712Z,8.82
2024-01-07T07:11:02.202Z,7.88
2024-01-07T07:13:28.869Z,7.95
2024-01-07T07:15:55.521Z,6.95
2024-01-07T07:18:22.984Z,6.20
2024-01-07T07:20:49.632Z,6.88
2024-01-07T07:23:16.331Z,7.75
2024-01-07T07:25:42.914Z,4.57
2024-01-07T07:28:09.698Z,7.55
2024-01-07T07:30:36.764Z,8.38
2024-01-07T07:33:04.198Z,4.57
2024-01-07T07:35:31.009Z,5.78
2024-01-07T07:37:57.777Z,4.22
2024-01-07T07:40:24.379Z,6.88
2024-01-07T07:42:51.033Z,5.28
2024-01-07T07:45:17.676Z,6.18
2024-01-07T07:47:46.727Z,4.63
2024-01-07T07:50:13.835Z,3.95
2024-01-07T07:52:42.945Z,6.40
2024-01-07T07:55:10.326Z,7.55
2024-01-07T07:57:38.885Z,6.80
2024-01-07T08:00:09.254Z,9.65
2024-01-07T08:02:35.903Z,4.93
2024-01-07T08:05:02.512Z,5.05
2024-01-07T08:07:29.195Z,6.30
2024-01-07T08:09:58.204Z,4.55
2024-01-07T08:12:25.191Z,4.20
2024-01-07T08:14:51.828Z,6.60
2024-01-07T08:17:18.422Z,6.82
2024-01-07T08:19:45.260Z,5.32
2024-01-07T08:22:12.096Z,3.20
2024-01-07T08:24:39.059Z,5.35
2024-01-07T08:27:05.734Z,4.07
2024-01-07T08:29:32.509Z,3.88
2024-01-07T08:31:59.641Z,4.00
2024-01-07T08:34:26.639Z,5.20
2024-01-07T08:36:55.153Z,4.80
2024-01-07T08:39:21.741Z,3.58
2024-01-07T08:41:48.444Z,5.97
2024-01-07T08:44:15.058Z,4.75
2024-01-07T08:46:41.948Z,3.90
2024-01-07T08:49:08.756Z,3.63
2024-01-07T08:51:35.562Z,5.47
2024-01-07T08:54:02.468Z,2.75
2024-01-07T08:56:29.055Z,3.75
2024-01-07T08:58:55.810Z,3.60
2024-01-07T09:01:22.664Z,5.18
2024-01-07T09:03:49.410Z,5.07
2024-01-07T09:06:16.096Z,3.33
2024-01-07T09:08:43.617Z,3.58
2024-01-07T09:11:13.544Z,5.30
2024-01-07T09:13:44.130Z,4.90
2024-01-07T09:16:12.802Z,3.20
2024-01-07T09:18:40.552Z,4.13
2024-01-07T09:21:07.549Z,6.18
2024-01-07T09:23:37.505Z,2.60
2024-01-07T09:26:04.389Z,3.40
2024-01-07T09:28:31.147Z,4.00
2024-01-07T09:30:57.820Z,4.10
2024-01-07T09:33:24.626Z,3.33
2024-01-07T09:35:51.953Z,4.80
2024-01-07T09:38:19.125Z,3.78
2024-01-07T09:40:45.901Z,5.28
2024-01-07T09:43:13.213Z,5.22
2024-01-07T09:45:42.524Z,3.90
2024-01-07T09:48:09.637Z,5.22
2024-01-07T09:50:36.424Z,4.07
2024-01-07T09:53:03.548Z,3.95
2024-01-07T09:55:38.835Z,5.05
2024-01-07T09:58:06.896Z,4.13
2024-01-07T10:00:34.652Z,4.53
2024-01-07T10:03:01.588Z,4.40
2024-01-07T10:05:28.222Z,5.40
2024-01-07T10:07:56.780Z,2.70
2024-01-07T10:10:23.656Z,3.70
2024-01-07T10:12:50.310Z,4.18
2024-01-07T10:15:17.120Z,4.65
2024-01-07T10:17:44.097Z,4.40
2024-01-07T10:20:11.477Z,5.55
2024-01-07T10:22:41.478Z,5.22
2024-01-07T10:25:11.959Z,3.15
2024-01-07T10:27:39.397Z,4.90
2024-01-07T10:30:07.583Z,4.65
2024-01-07T10:32:42.604Z,5.38
2024-01-07T10:35:17.594Z,5.45
2024-01-07T10:37:46.140Z,5.32
2024-01-07T10:40:13.630Z,5.75
2024-01-07T10:42:44.378Z,4.35
2024-01-07T10:45:12.022Z,7.00
2024-01-07T10:47:42.687Z,4.25
2024-01-07T10:50:12.778Z,2.47
2024-01-07T10:52:41.706Z,3.97
2024-01-07T10:55:14.331Z,5.32
2024-01-07T10:57:45.847Z,3.45
2024-01-07T11:00:19.737Z,3.08
2024-01-07T11:02:54.929Z,6.05
2024-01-07T11:05:32.115Z,3.80
2024-01-07T11:08:21.251Z,3.53
2024-01-07T11:10:53.387Z,2.58
2024-01-07T11:13:41.290Z,3.80
2024-01-07T11:16:15.279Z,4.65
2024-01-07T11:18:52.962Z,5.10
2024-01-07T11:21:25.697Z,2.80
2024-01-07T11:23:54.155Z,4.45
2024-01-07T11:26:24.041Z,3.15
2024-01-07T11:28:54.393Z,2.72
2024-01-07T11:31:22.793Z,5.53
2024-01-07T11:33:51.482Z,2.30
2024-01-07T11:36:19.229Z,3.65
2024-01-07T11:38:51.246Z,2.22
2024-01-07T11:41:21.767Z,2.53
2024-01-07T11:43:55.829Z,3.15
2024-01-07T11:46:26.262Z,3.38
2024-01-07T11:49:01.287Z,4.50
2024-01-07T11:51:33.054Z,3.42
2024-01-07T11:56:30.898Z,2.83
2024-01-07T11:58:58.477Z,4.65
2024-01-07T12:01:27.540Z,3.78
2024-01-07T12:03:57.582Z,2.08
2024-01-07T12:06:27.591Z,3.80
2024-01-07T12:08:54.422Z,2.90
2024-01-07T12:11:21.985Z,1.85
2024-01-07T12:13:51.498Z,4.40
2024-01-07T12:16:18.335Z,2.33
2024-01-07T12:18:45.209Z,3.90
2024-01-07T12:21:12.006Z,2.40
2024-01-07T12:23:41.668Z,2.90
2024-01-07T12:26:14.905Z,4.13
2024-01-07T12:28:42.705Z,2.90
2024-01-07T12:31:10.375Z,3.05
2024-01-07T12:33:41.639Z,3.47
2024-01-07T12:36:08.738Z,2.47
2024-01-07T12:38:39.034Z,2.08
2024-01-07T12:41:06.285Z,3.42
2024-01-07T12:43:33.155Z,2.75
2024-01-07T12:46:05.764Z,3.05
2024-01-07T12:48:33.271Z,2.10
2024-01-07T12:51:00.814Z,2.40
2024-01-07T12:53:27.512Z,1.98
2024-01-07T12:55:54.857Z,4.05
2024-01-07T12:58:22.209Z,1.63
2024-01-07T13:00:48.985Z,1.85
2024-01-07T13:03:18.796Z,1.75
2024-01-07T13:05:47.596Z,2.22
2024-01-07T13:08:14.747Z,2.97
2024-01-07T13:10:45.607Z,3.72
2024-01-07T13:13:16.053Z,3.33
2024-01-07T13:15:43.814Z,2.35
2024-01-07T13:18:13.451Z,1.80
2024-01-07T13:20:43.434Z,4.65
2024-01-07T13:23:10.201Z,1.75
2024-01-07T13:25:36.896Z,2.55
2024-01-07T13:28:03.993Z,1.58
2024-01-07T13:30:31.081Z,2.15
2024-01-07T13:32:58.509Z,2.67
2024-01-07T13:35:26.423Z,2.25
2024-01-07T13:37:53.223Z,1.60
2024-01-07T13:40:20.172Z,2.10
2024-01-07T13:42:49.761Z,3.05
2024-01-07T13:45:18.034Z,2.63
2024-01-07T13:47:44.745Z,3.80
2024-01-07T13:50:11.553Z,3.92
2024-01-07T13:52:38.304Z,2.17
2024-01-07T13:55:05.593Z,4.80
2024-01-07T13:57:32.470Z,2.65
2024-01-07T13:59:59.566Z,1.55
2024-01-07T14:02:26.279Z,2.00
2024-01-07T14:04:53.096Z,2.80
2024-01-07T14:07:22.382Z,2.55
2024-01-07T14:09:49.186Z,1.63
2024-01-07T14:12:15.819Z,3.97
2024-01-07T14:14:42.516Z,2.38
2024-01-07T14:17:09.495Z,2.95
2024-01-07T14:19:36.318Z,2.42
2024-01-07T14:22:03.269Z,3.03
2024-01-07T14:24:30.046Z,2.10
2024-01-07T14:26:58.344Z,3.03
2024-01-07T14:29:25.920Z,1.80
2024-01-07T14:31:52.614Z,3.53
2024-01-07T14:34:19.707Z,2.03
2024-01-07T14:36:46.628Z,2.65
2024-01-07T14:39:15.409Z,3.08
2024-01-07T14:41:42.518Z,3.00
2024-01-07T14:44:12.426Z,3.67
2024-01-07T14:46:40.229Z,3.60
2024-01-07T14:49:08.309Z,2.20
2024-01-07T14:51:35.517Z,2.03
2024-01-07T14:54:03.951Z,2.92
2024-01-07T14:56:30.676Z,2.70
2024-01-07T14:58:57.581Z,2.50
2024-01-07T15:01:25.369Z,2.00
2024-01-07T15:03:52.228Z,1.92
2024-01-07T15:06:18.999Z,2.03
2024-01-07T15:08:45.729Z,2.58
2024-01-07T15:11:13.448Z,1.98
2024-01-07T15:13:41.227Z,3.20
2024-01-07T15:16:08.428Z,2.67
2024-01-07T15:18:38.398Z,2.38
2024-01-07T15:21:06.976Z,2.67
2024-01-07T15:23:33.961Z,3.13
2024-01-07T15:26:00.646Z,2.10
2024-01-07T15:28:27.615Z,1.60
2024-01-07T15:30:54.539Z,3.13
2024-01-07T15:33:21.475Z,1.80
2024-01-07T15:35:48.988Z,3.15
2024-01-07T15:38:15.661Z,2.65
2024-01-07T15:40:43.231Z,4.03
2024-01-07T15:43:13.241Z,3.22
2024-01-07T15:45:39.973Z,2.38
2024-01-07T15:48:07.114Z,4.30
2024-01-07T15:50:33.838Z,3.10
2024-01-07T15:53:00.657Z,2.83
2024-01-07T15:55:27.855Z,2.22
2024-01-07T15:57:54.796Z,2.03
2024-01-07T16:00:21.558Z,3.40
2024-01-07T16:02:48.493Z,5.85
2024-01-07T16:05:15.712Z,3.17
2024-01-07T16:07:42.318Z,2.67
2024-01-07T16:10:09.534Z,4.00
2024-01-07T16:12:36.486Z,2.83
2024-01-07T16:15:03.921Z,3.40
2024-01-07T16:17:30.809Z,4.68
2024-01-07T16:19:57.775Z,2.08
2024-01-07T16:22:24.663Z,5.90
2024-01-07T16:24:52.010Z,2.60
2024-01-07T16:27:18.963Z,2.58
2024-01-07T16:29:48.733Z,2.90
2024-01-07T16:32:15.649Z,3.53
2024-01-07T16:34:42.865Z,3.03
2024-01-07T16:37:09.843Z,2.92
2024-01-07T16:39:36.784Z,2.67
2024-01-07T16:42:06.133Z,3.85
2024-01-07T16:44:35.216Z,4.00
2024-01-07T16:47:02.214Z,6.03
2024-01-07T16:51:59.402Z,2.83
2024-01-07T16:54:26.106Z,2.65
2024-01-07T16:56:52.857Z,4.13
2024-01-07T16:59:22.253Z,2.70
2024-01-07T17:01:49.072Z,2.15
2024-01-07T17:04:15.765Z,2.70
2024-01-07T17:06:42.592Z,2.85
2024-01-07T17:09:10.323Z,2.78
2024-01-07T17:11:39.015Z,2.13
2024-01-07T17:14:05.727Z,3.90
2024-01-07T17:16:32.377Z,2.83
2024-01-07T17:18:59.523Z,3.25
2024-01-07T17:21:26.374Z,3.08
2024-01-07T17:23:54.527Z,3.33
2024-01-07T17:26:21.935Z,3.70
2024-01-07T17:28:48.712Z,2.55
2024-01-07T17:31:15.779Z,4.75
2024-01-07T17:33:42.640Z,2.63
2024-01-07T17:36:09.475Z,3.22
2024-01-07T17:38:36.081Z,4.35
2024-01-07T17:41:03.160Z,2.95
2024-01-07T17:43:30.164Z,2.55
2024-01-07T17:45:56.944Z,4.78
2024-01-07T17:48:23.839Z,4.57
2024-01-07T17:50:50.798Z,5.75
2024-01-07T17:53:18.246Z,5.03
2024-01-07T17:55:45.379Z,3.95
2024-01-07T17:58:12.259Z,3.65
2024-01-07T18:00:39.224Z,2.65
2024-01-07T18:03:10.477Z,2.28
2024-01-07T18:05:37.426Z,2.88
2024-01-07T18:08:04.785Z,3.90
2024-01-07T18:10:31.966Z,5.15
2024-01-07T18:12:59.228Z,2.88
2024-01-07T18:15:26.494Z,2.90
2024-01-07T18:17:53.420Z,4.82
2024-01-07T18:20:21.855Z,3.33
2024-01-07T18:22:49.073Z,2.80
2024-01-07T18:25:17.281Z,3.33
2024-01-07T18:27:45.310Z,4.18
2024-01-07T18:30:12.656Z,5.43
2024-01-07T18:32:39.787Z,4.63
2024-01-07T18:35:07.112Z,4.65
2024-01-07T18:37:34.233Z,3.13
2024-01-07T18:40:02.120Z,5.03
2024-01-07T18:42:29.217Z,4.00
2024-01-07T18:44:56.232Z,3.83
2024-01-07T18:47:28.049Z,3.80
2024-01-07T18:49:55.240Z,5.18
2024-01-07T18:52:21.902Z,5.28
2024-01-07T18:54:48.467Z,4.28
2024-01-07T18:57:17.598Z,3.35
2024-01-07T18:59:44.505Z,3.72
2024-01-07T19:02:11.409Z,5.70
2024-01-07T19:04:38.551Z,5.22
2024-01-07T19:07:05.584Z,4.45
2024-01-07T19:09:32.505Z,3.58
2024-01-07T19:11:59.207Z,6.35
2024-01-07T19:14:26.027Z,4.53
2024-01-07T19:16:53.181Z,3.67
2024-01-07T19:19:20.099Z,6.00
2024-01-07T19:21:49.956Z,4.28
2024-01-07T19:24:16.706Z,3.55
2024-01-07T19:26:45.565Z,4.38
2024-01-07T19:29:21.727Z,3.25
2024-01-07T19:31:48.657Z,3.97
2024-01-07T19:34:15.380Z,4.20
2024-01-07T19:36:42.258Z,3.55
2024-01-07T19:39:12.326Z,4.30
2024-01-07T19:41:39.768Z,4.57
2024-01-07T19:44:08.582Z,4.63
2024-01-07T19:46:35.861Z,4.53
2024-01-07T19:49:04.775Z,3.45
2024-01-07T19:51:31.599Z,3.58
2024-01-07T19:53:58.703Z,2.80
2024-01-07T19:56:25.721Z,4.53
2024-01-07T19:58:53.138Z,2.67
2024-01-07T20:01:20.428Z,7.38
2024-01-07T20:03:47.359Z,4.32
2024-01-07T20:06:15.020Z,3.28
2024-01-07T20:08:45.704Z,3.67
2024-01-07T20:11:25.233Z,6.00
2024-01-07T20:13:53.082Z,4.10
2024-01-07T20:16:21.683Z,3.90
2024-01-07T20:18:54.075Z,4.15
2024-01-07T20:23:55.996Z,3.40
2024-01-07T20:26:23.813Z,4.53
2024-01-07T20:28:55.757Z,3.90
2024-01-07T20:31:25.604Z,3.15
2024-01-07T20:33:56.306Z,2.58
2024-01-07T20:36:23.403Z,4.40
2024-01-07T20:39:04.045Z,4.07
2024-01-07T20:41:31.001Z,3.67
2024-01-07T20:43:57.928Z,3.35
2024-01-07T20:46:24.903Z,2.25
2024-01-07T20:48:52.217Z,3.75
2024-01-07T20:51:19.137Z,4.22
2024-01-07T20:53:45.928Z,4.00
2024-01-07T20:56:13.184Z,5.10
2024-01-07T20:58:39.986Z,3.92
2024-01-07T21:01:07.396Z,3.78
2024-01-07T21:03:34.760Z,3.60
2024-01-07T21:06:02.553Z,4.30
2024-01-07T21:08:30.152Z,4.45
2024-01-07T21:10:58.885Z,3.15
2024-01-07T21:13:25.900Z,3.20
2024-01-07T21:15:55.461Z,3.38
2024-01-07T21:18:22.398Z,4.10
2024-01-07T21:20:50.842Z,4.78
2024-01-07T21:23:19.709Z,4.32
2024-01-07T21:25:47.036Z,3.05
2024-01-07T21:28:14.494Z,4.47
2024-01-07T21:30:41.841Z,4.55
2024-01-07T21:33:08.956Z,5.57
2024-01-07T21:35:35.815Z,4.40
2024-01-07T21:38:02.848Z,4.25
2024-01-07T21:40:29.663Z,3.80
2024-01-07T21:42:56.615Z,4.55
2024-01-07T21:45:24.018Z,4.55
2024-01-07T21:47:54.222Z,2.97
2024-01-07T21:50:23.820Z,6.57
2024-01-07T21:53:04.158Z,4.97
2024-01-07T21:55:38.985Z,4.35
2024-01-07T21:58:05.870Z,3.90
2024-01-07T22:00:32.711Z,4.32
2024-01-07T22:03:00.206Z,5.40
2024-01-07T22:05:27.240Z,4.10
2024-01-07T22:07:54.033Z,4.82
2024-01-07T22:10:20.703Z,5.05
2024-01-07T22:12:47.440Z,3.30
2024-01-07T22:15:14.586Z,2.67
2024-01-07T22:17:41.673Z,4.78
2024-01-07T22:20:08.774Z,3.08
2024-01-07T22:22:35.523Z,3.38
2024-01-07T22:25:02.418Z,4.95
2024-01-07T22:27:29.165Z,3.97
2024-01-07T22:29:55.823Z,3.13
2024-01-07T22:32:22.765Z,3.63
2024-01-07T22:34:49.504Z,4.72
2024-01-07T22:37:16.134Z,3.88
2024-01-07T22:39:43.289Z,4.55
2024-01-07T22:42:10.027Z,3.05
2024-01-07T22:44:36.749Z,2.85
2024-01-07T22:47:03.522Z,2.65
2024-01-07T22:49:30.195Z,4.82
2024-01-07T22:51:59.090Z,4.05
2024-01-07T22:54:25.761Z,4.07
2024-01-07T22:56:52.463Z,5.75
2024-01-07T22:59:19.852Z,4.13
2024-01-07T23:01:46.893Z,2.80
2024-01-07T23:04:13.651Z,3.60
2024-01-07T23:06:41.210Z,3.25
2024-01-07T23:09:09.005Z,2.38
2024-01-07T23:11:36.174Z,3.38
2024-01-07T23:14:05.427Z,2.85
2024-01-07T23:16:32.561Z,3.80
2024-01-07T23:18:59.394Z,3.38
2024-01-07T23:21:29.886Z,3.58
2024-01-07T23:23:56.690Z,3.45
2024-01-07T23:26:23.645Z,3.50
2024-01-07T23:28:50.445Z,2.58
2024-01-07T23:31:17.468Z,3.08
2024-01-07T23:33:44.290Z,2.75
2024-01-07T23:36:11.123Z,4.18
2024-01-07T23:38:38.215Z,3.72
2024-01-07T23:41:06.149Z,3.20
2024-01-07T23:43:33.311Z,4.65
2024-01-07T23:46:00.067Z,3.55
2024-01-07T23:48:27.351Z,4.18
2024-01-07T23:50:54.106Z,3.40
2024-01-07T23:53:20.930Z,3.60
2024-01-07T23:55:47.877Z,3.65
2024-01-07T23:58:14.630Z,3.33
